sensor_id;sensor_type;location;lat;lon;timestamp;temperature;humidity
3055;DHT22;1537;52.018;8.542;2022-12-26T00:01:24;10.90;95.10
3055;DHT22;1537;52.018;8.542;2022-12-26T00:04:50;10.90;95.10
3055;DHT22;1537;52.018;8.542;2022-12-26T00:08:15;10.80;95.20
3055;DHT22;1537;52.018;8.542;2022-12-26T00:11:39;10.80;95.20
3055;DHT22;1537;52.018;8.542;2022-12-26T00:15:03;10.90;95.20
3055;DHT22;1537;52.018;8.542;2022-12-26T00:18:28;10.90;95.20
3055;DHT22;1537;52.018;8.542;2022-12-26T00:21:52;10.80;95.20
3055;DHT22;1537;52.018;8.542;2022-12-26T00:25:15;10.80;95.20
3055;DHT22;1537;52.018;8.542;2022-12-26T00:28:39;10.80;95.20
3055;DHT22;1537;52.018;8.542;2022-12-26T00:32:03;10.80;95.10
3055;DHT22;1537;52.018;8.542;2022-12-26T00:35:29;10.80;95.10
3055;DHT22;1537;52.018;8.542;2022-12-26T00:38:54;10.80;95.10
3055;DHT22;1537;52.018;8.542;2022-12-26T00:42:18;10.80;95.10
3055;DHT22;1537;52.018;8.542;2022-12-26T00:45:43;10.80;95.10
3055;DHT22;1537;52.018;8.542;2022-12-26T00:49:08;10.80;95.10
3055;DHT22;1537;52.018;8.542;2022-12-26T00:52:33;10.80;95.00
3055;DHT22;1537;52.018;8.542;2022-12-26T00:55:58;10.80;95.00
3055;DHT22;1537;52.018;8.542;2022-12-26T00:59:22;10.80;95.00
3055;DHT22;1537;52.018;8.542;2022-12-26T01:02:46;10.80;94.80
3055;DHT22;1537;52.018;8.542;2022-12-26T01:06:13;10.80;94.90
3055;DHT22;1537;52.018;8.542;2022-12-26T01:09:38;10.80;94.80
3055;DHT22;1537;52.018;8.542;2022-12-26T01:13:02;10.80;94.80
3055;DHT22;1537;52.018;8.542;2022-12-26T01:16:26;10.90;94.80
3055;DHT22;1537;52.018;8.542;2022-12-26T01:19:49;10.90;94.70
3055;DHT22;1537;52.018;8.542;2022-12-26T01:23:13;10.80;94.60
3055;DHT22;1537;52.018;8.542;2022-12-26T01:26:38;10.90;94.60
3055;DHT22;1537;52.018;8.542;2022-12-26T01:30:03;10.80;94.50
3055;DHT22;1537;52.018;8.542;2022-12-26T01:33:28;10.80;94.50
3055;DHT22;1537;52.018;8.542;2022-12-26T01:36:52;10.80;94.50
3055;DHT22;1537;52.018;8.542;2022-12-26T01:40:16;10.80;94.60
3055;DHT22;1537;52.018;8.542;2022-12-26T01:43:53;10.70;94.50
3055;DHT22;1537;52.018;8.542;2022-12-26T01:47:18;10.70;94.50
3055;DHT22;1537;52.018;8.542;2022-12-26T01:50:46;10.70;94.50
3055;DHT22;1537;52.018;8.542;2022-12-26T01:54:12;10.70;94.50
3055;DHT22;1537;52.018;8.542;2022-12-26T01:58:01;10.70;94.50
3055;DHT22;1537;52.018;8.542;2022-12-26T02:01:29;10.70;94.50
3055;DHT22;1537;52.018;8.542;2022-12-26T02:04:55;10.70;94.50
3055;DHT22;1537;52.018;8.542;2022-12-26T02:08:37;10.70;94.50
3055;DHT22;1537;52.018;8.542;2022-12-26T02:12:04;10.60;94.50
3055;DHT22;1537;52.018;8.542;2022-12-26T02:15:49;10.60;94.50
3055;DHT22;1537;52.018;8.542;2022-12-26T02:19:24;10.60;94.50
3055;DHT22;1537;52.018;8.542;2022-12-26T02:27:33;10.60;94.40
3055;DHT22;1537;52.018;8.542;2022-12-26T02:31:01;10.60;94.30
3055;DHT22;1537;52.018;8.542;2022-12-26T02:34:34;10.60;94.30
3055;DHT22;1537;52.018;8.542;2022-12-26T02:38:12;10.50;94.10
3055;DHT22;1537;52.018;8.542;2022-12-26T02:41:45;10.40;94.20
3055;DHT22;1537;52.018;8.542;2022-12-26T02:45:17;10.40;94.20
3055;DHT22;1537;52.018;8.542;2022-12-26T02:49:08;10.50;94.20
3055;DHT22;1537;52.018;8.542;2022-12-26T02:52:43;10.50;94.20
3055;DHT22;1537;52.018;8.542;2022-12-26T02:56:33;10.40;94.20
3055;DHT22;1537;52.018;8.542;2022-12-26T03:00:21;10.50;94.30
3055;DHT22;1537;52.018;8.542;2022-12-26T03:04:11;10.50;94.20
3055;DHT22;1537;52.018;8.542;2022-12-26T03:07:55;10.60;94.20
3055;DHT22;1537;52.018;8.542;2022-12-26T03:11:39;10.50;94.10
3055;DHT22;1537;52.018;8.542;2022-12-26T03:15:24;10.50;94.10
3055;DHT22;1537;52.018;8.542;2022-12-26T03:18:52;10.40;94.10
3055;DHT22;1537;52.018;8.542;2022-12-26T03:22:22;10.50;94.20
3055;DHT22;1537;52.018;8.542;2022-12-26T03:25:54;10.50;94.30
3055;DHT22;1537;52.018;8.542;2022-12-26T03:29:35;10.50;94.30
3055;DHT22;1537;52.018;8.542;2022-12-26T03:33:17;10.50;94.30
3055;DHT22;1537;52.018;8.542;2022-12-26T03:37:18;10.50;94.70
3055;DHT22;1537;52.018;8.542;2022-12-26T03:40:52;10.40;94.30
3055;DHT22;1537;52.018;8.542;2022-12-26T03:44:39;10.40;94.40
3055;DHT22;1537;52.018;8.542;2022-12-26T03:48:29;10.40;94.40
3055;DHT22;1537;52.018;8.542;2022-12-26T03:52:22;10.40;94.40
3055;DHT22;1537;52.018;8.542;2022-12-26T03:56:10;10.40;94.30
3055;DHT22;1537;52.018;8.542;2022-12-26T03:59:58;10.30;94.30
3055;DHT22;1537;52.018;8.542;2022-12-26T04:03:43;10.30;94.40
3055;DHT22;1537;52.018;8.542;2022-12-26T04:07:27;10.30;94.40
3055;DHT22;1537;52.018;8.542;2022-12-26T04:11:21;10.40;94.40
3055;DHT22;1537;52.018;8.542;2022-12-26T04:15:10;10.30;94.40
3055;DHT22;1537;52.018;8.542;2022-12-26T04:18:59;10.30;94.40
3055;DHT22;1537;52.018;8.542;2022-12-26T04:22:44;10.30;94.30
3055;DHT22;1537;52.018;8.542;2022-12-26T04:26:33;10.30;94.20
3055;DHT22;1537;52.018;8.542;2022-12-26T04:30:16;10.20;94.20
3055;DHT22;1537;52.018;8.542;2022-12-26T04:33:59;10.30;94.10
3055;DHT22;1537;52.018;8.542;2022-12-26T04:37:43;10.20;94.00
3055;DHT22;1537;52.018;8.542;2022-12-26T04:41:28;10.20;94.00
3055;DHT22;1537;52.018;8.542;2022-12-26T04:45:10;10.10;94.00
3055;DHT22;1537;52.018;8.542;2022-12-26T04:48:41;10.10;94.10
3055;DHT22;1537;52.018;8.542;2022-12-26T04:52:23;10.10;93.90
3055;DHT22;1537;52.018;8.542;2022-12-26T04:55:46;10.10;93.90
3055;DHT22;1537;52.018;8.542;2022-12-26T04:59:11;10.10;94.00
3055;DHT22;1537;52.018;8.542;2022-12-26T05:02:35;10.10;93.80
3055;DHT22;1537;52.018;8.542;2022-12-26T05:06:16;10.10;93.70
3055;DHT22;1537;52.018;8.542;2022-12-26T05:10:00;10.00;93.60
3055;DHT22;1537;52.018;8.542;2022-12-26T05:13:24;10.00;93.70
3055;DHT22;1537;52.018;8.542;2022-12-26T05:16:49;10.10;93.70
3055;DHT22;1537;52.018;8.542;2022-12-26T05:20:30;10.10;93.70
3055;DHT22;1537;52.018;8.542;2022-12-26T05:24:16;10.10;93.50
3055;DHT22;1537;52.018;8.542;2022-12-26T05:27:58;10.10;93.50
3055;DHT22;1537;52.018;8.542;2022-12-26T05:31:39;10.10;93.40
3055;DHT22;1537;52.018;8.542;2022-12-26T05:35:05;10.10;93.40
3055;DHT22;1537;52.018;8.542;2022-12-26T05:38:27;10.10;93.40
3055;DHT22;1537;52.018;8.542;2022-12-26T05:41:51;10.10;93.50
3055;DHT22;1537;52.018;8.542;2022-12-26T05:45:15;10.10;93.50
3055;DHT22;1537;52.018;8.542;2022-12-26T05:48:38;10.00;93.40
3055;DHT22;1537;52.018;8.542;2022-12-26T05:52:04;10.00;93.40
3055;DHT22;1537;52.018;8.542;2022-12-26T05:55:27;10.00;93.50
3055;DHT22;1537;52.018;8.542;2022-12-26T05:58:53;10.00;93.40
3055;DHT22;1537;52.018;8.542;2022-12-26T06:02:17;10.00;93.40
3055;DHT22;1537;52.018;8.542;2022-12-26T06:05:41;10.00;93.40
3055;DHT22;1537;52.018;8.542;2022-12-26T06:09:06;10.00;93.70
3055;DHT22;1537;52.018;8.542;2022-12-26T06:12:30;10.10;93.40
3055;DHT22;1537;52.018;8.542;2022-12-26T06:15:53;10.00;93.20
3055;DHT22;1537;52.018;8.542;2022-12-26T06:19:17;10.00;93.10
3055;DHT22;1537;52.018;8.542;2022-12-26T06:22:41;10.00;93.10
3055;DHT22;1537;52.018;8.542;2022-12-26T06:26:06;9.90;93.50
3055;DHT22;1537;52.018;8.542;2022-12-26T06:29:31;9.90;93.40
3055;DHT22;1537;52.018;8.542;2022-12-26T06:32:55;9.80;93.40
3055;DHT22;1537;52.018;8.542;2022-12-26T06:36:20;9.90;93.40
3055;DHT22;1537;52.018;8.542;2022-12-26T06:39:45;9.90;93.40
3055;DHT22;1537;52.018;8.542;2022-12-26T06:43:10;9.90;93.30
3055;DHT22;1537;52.018;8.542;2022-12-26T06:46:34;9.80;93.30
3055;DHT22;1537;52.018;8.542;2022-12-26T06:49:57;9.90;93.30
3055;DHT22;1537;52.018;8.542;2022-12-26T06:53:21;9.90;93.30
3055;DHT22;1537;52.018;8.542;2022-12-26T06:56:45;9.90;93.30
3055;DHT22;1537;52.018;8.542;2022-12-26T07:00:12;9.90;93.30
3055;DHT22;1537;52.018;8.542;2022-12-26T07:03:36;9.90;93.30
3055;DHT22;1537;52.018;8.542;2022-12-26T07:07:03;10.00;92.80
3055;DHT22;1537;52.018;8.542;2022-12-26T07:10:26;9.90;93.30
3055;DHT22;1537;52.018;8.542;2022-12-26T07:13:51;9.90;93.60
3055;DHT22;1537;52.018;8.542;2022-12-26T07:17:16;9.90;93.30
3055;DHT22;1537;52.018;8.542;2022-12-26T07:20:40;9.90;93.30
3055;DHT22;1537;52.018;8.542;2022-12-26T07:24:04;9.90;93.20
3055;DHT22;1537;52.018;8.542;2022-12-26T07:27:27;9.90;93.10
3055;DHT22;1537;52.018;8.542;2022-12-26T07:30:52;9.90;93.10
3055;DHT22;1537;52.018;8.542;2022-12-26T07:34:19;9.80;93.00
3055;DHT22;1537;52.018;8.542;2022-12-26T07:37:49;9.80;92.90
3055;DHT22;1537;52.018;8.542;2022-12-26T07:41:13;9.80;92.90
3055;DHT22;1537;52.018;8.542;2022-12-26T07:44:55;9.80;92.80
3055;DHT22;1537;52.018;8.542;2022-12-26T07:48:19;9.70;92.70
3055;DHT22;1537;52.018;8.542;2022-12-26T07:51:44;9.70;92.70
3055;DHT22;1537;52.018;8.542;2022-12-26T07:55:08;9.70;92.80
3055;DHT22;1537;52.018;8.542;2022-12-26T07:58:32;9.70;92.80
3055;DHT22;1537;52.018;8.542;2022-12-26T08:01:55;9.70;92.80
3055;DHT22;1537;52.018;8.542;2022-12-26T08:05:22;9.70;92.80
3055;DHT22;1537;52.018;8.542;2022-12-26T08:08:47;9.70;92.80
3055;DHT22;1537;52.018;8.542;2022-12-26T08:12:13;9.70;92.80
3055;DHT22;1537;52.018;8.542;2022-12-26T08:15:37;9.80;92.90
3055;DHT22;1537;52.018;8.542;2022-12-26T08:19:01;9.80;92.90
3055;DHT22;1537;52.018;8.542;2022-12-26T08:22:26;9.90;92.90
3055;DHT22;1537;52.018;8.542;2022-12-26T08:25:51;9.90;92.80
3055;DHT22;1537;52.018;8.542;2022-12-26T08:29:14;9.80;92.80
3055;DHT22;1537;52.018;8.542;2022-12-26T08:32:38;9.80;92.70
3055;DHT22;1537;52.018;8.542;2022-12-26T08:36:09;9.90;92.70
3055;DHT22;1537;52.018;8.542;2022-12-26T08:39:33;9.90;92.60
3055;DHT22;1537;52.018;8.542;2022-12-26T08:42:58;9.90;92.60
3055;DHT22;1537;52.018;8.542;2022-12-26T08:46:42;9.90;92.60
3055;DHT22;1537;52.018;8.542;2022-12-26T08:50:06;10.00;92.10
3055;DHT22;1537;52.018;8.542;2022-12-26T08:53:31;10.00;91.90
3055;DHT22;1537;52.018;8.542;2022-12-26T08:56:57;9.90;92.30
3055;DHT22;1537;52.018;8.542;2022-12-26T09:00:22;9.90;92.40
3055;DHT22;1537;52.018;8.542;2022-12-26T09:03:51;9.90;92.40
3055;DHT22;1537;52.018;8.542;2022-12-26T09:07:15;9.90;92.30
3055;DHT22;1537;52.018;8.542;2022-12-26T09:10:38;9.90;92.30
3055;DHT22;1537;52.018;8.542;2022-12-26T09:14:03;9.90;92.20
3055;DHT22;1537;52.018;8.542;2022-12-26T09:17:28;9.90;92.20
3055;DHT22;1537;52.018;8.542;2022-12-26T09:20:53;10.00;91.60
3055;DHT22;1537;52.018;8.542;2022-12-26T09:24:17;10.00;91.50
3055;DHT22;1537;52.018;8.542;2022-12-26T09:27:41;10.00;91.50
3055;DHT22;1537;52.018;8.542;2022-12-26T09:31:07;10.10;91.40
3055;DHT22;1537;52.018;8.542;2022-12-26T09:34:32;10.20;91.30
3055;DHT22;1537;52.018;8.542;2022-12-26T09:37:56;10.20;91.20
3055;DHT22;1537;52.018;8.542;2022-12-26T09:41:54;10.20;91.10
3055;DHT22;1537;52.018;8.542;2022-12-26T09:45:24;10.40;91.00
3055;DHT22;1537;52.018;8.542;2022-12-26T09:48:55;10.60;90.70
3055;DHT22;1537;52.018;8.542;2022-12-26T09:52:26;10.80;90.40
3055;DHT22;1537;52.018;8.542;2022-12-26T09:55:57;10.90;89.50
3055;DHT22;1537;52.018;8.542;2022-12-26T09:59:22;10.80;89.30
3055;DHT22;1537;52.018;8.542;2022-12-26T10:02:50;10.80;89.70
3055;DHT22;1537;52.018;8.542;2022-12-26T10:06:16;10.90;89.10
3055;DHT22;1537;52.018;8.542;2022-12-26T10:09:55;10.90;88.50
3055;DHT22;1537;52.018;8.542;2022-12-26T10:13:25;11.10;87.90
3055;DHT22;1537;52.018;8.542;2022-12-26T10:16:55;11.10;87.70
3055;DHT22;1537;52.018;8.542;2022-12-26T10:20:29;10.90;88.80
3055;DHT22;1537;52.018;8.542;2022-12-26T10:23:57;11.10;88.40
3055;DHT22;1537;52.018;8.542;2022-12-26T10:27:24;11.10;87.10
3055;DHT22;1537;52.018;8.542;2022-12-26T10:30:50;11.20;86.60
3055;DHT22;1537;52.018;8.542;2022-12-26T10:34:18;11.30;86.50
3055;DHT22;1537;52.018;8.542;2022-12-26T10:37:43;11.50;84.80
3055;DHT22;1537;52.018;8.542;2022-12-26T10:41:12;11.50;83.70
3055;DHT22;1537;52.018;8.542;2022-12-26T10:44:38;11.30;81.30
3055;DHT22;1537;52.018;8.542;2022-12-26T10:48:03;11.20;81.20
3055;DHT22;1537;52.018;8.542;2022-12-26T10:51:28;11.10;82.20
3055;DHT22;1537;52.018;8.542;2022-12-26T10:54:53;11.00;82.10
3055;DHT22;1537;52.018;8.542;2022-12-26T10:58:39;11.00;82.80
3055;DHT22;1537;52.018;8.542;2022-12-26T11:02:22;11.10;81.90
3055;DHT22;1537;52.018;8.542;2022-12-26T11:05:49;11.00;82.40
3055;DHT22;1537;52.018;8.542;2022-12-26T11:09:37;11.00;83.40
3055;DHT22;1537;52.018;8.542;2022-12-26T11:13:05;11.10;83.70
3055;DHT22;1537;52.018;8.542;2022-12-26T11:16:31;11.10;83.50
3055;DHT22;1537;52.018;8.542;2022-12-26T11:20:21;11.00;83.10
3055;DHT22;1537;52.018;8.542;2022-12-26T11:23:46;11.00;83.30
3055;DHT22;1537;52.018;8.542;2022-12-26T11:27:17;11.00;82.80
3055;DHT22;1537;52.018;8.542;2022-12-26T11:30:46;11.10;82.80
3055;DHT22;1537;52.018;8.542;2022-12-26T11:34:16;11.00;82.10
3055;DHT22;1537;52.018;8.542;2022-12-26T11:37:43;11.00;82.30
3055;DHT22;1537;52.018;8.542;2022-12-26T11:41:10;11.00;83.40
3055;DHT22;1537;52.018;8.542;2022-12-26T11:44:54;11.00;82.10
3055;DHT22;1537;52.018;8.542;2022-12-26T11:48:23;11.00;82.10
3055;DHT22;1537;52.018;8.542;2022-12-26T11:51:49;11.00;81.80
3055;DHT22;1537;52.018;8.542;2022-12-26T11:55:29;11.00;81.30
3055;DHT22;1537;52.018;8.542;2022-12-26T11:59:06;11.00;81.60
3055;DHT22;1537;52.018;8.542;2022-12-26T12:02:40;11.10;81.40
3055;DHT22;1537;52.018;8.542;2022-12-26T12:09:55;11.10;80.70
3055;DHT22;1537;52.018;8.542;2022-12-26T12:13:35;11.10;81.00
3055;DHT22;1537;52.018;8.542;2022-12-26T12:17:12;11.00;80.80
3055;DHT22;1537;52.018;8.542;2022-12-26T12:20:54;10.90;81.30
3055;DHT22;1537;52.018;8.542;2022-12-26T12:24:37;10.90;81.90
3055;DHT22;1537;52.018;8.542;2022-12-26T12:28:25;10.80;83.10
3055;DHT22;1537;52.018;8.542;2022-12-26T12:32:06;10.70;84.00
3055;DHT22;1537;52.018;8.542;2022-12-26T12:35:41;10.80;85.30
3055;DHT22;1537;52.018;8.542;2022-12-26T12:39:10;10.80;85.60
3055;DHT22;1537;52.018;8.542;2022-12-26T12:42:44;10.80;85.50
3055;DHT22;1537;52.018;8.542;2022-12-26T12:46:19;10.70;85.50
3055;DHT22;1537;52.018;8.542;2022-12-26T12:49:56;10.80;85.60
3055;DHT22;1537;52.018;8.542;2022-12-26T12:53:31;10.70;85.00
3055;DHT22;1537;52.018;8.542;2022-12-26T12:57:04;10.70;85.00
3055;DHT22;1537;52.018;8.542;2022-12-26T13:00:39;10.70;84.70
3055;DHT22;1537;52.018;8.542;2022-12-26T13:04:09;10.70;85.50
3055;DHT22;1537;52.018;8.542;2022-12-26T13:07:38;10.70;86.10
3055;DHT22;1537;52.018;8.542;2022-12-26T13:11:12;10.70;86.30
3055;DHT22;1537;52.018;8.542;2022-12-26T13:14:41;10.70;86.00
3055;DHT22;1537;52.018;8.542;2022-12-26T13:18:10;10.70;87.10
3055;DHT22;1537;52.018;8.542;2022-12-26T13:21:36;10.60;88.10
3055;DHT22;1537;52.018;8.542;2022-12-26T13:25:03;10.60;89.10
3055;DHT22;1537;52.018;8.542;2022-12-26T13:28:28;10.50;89.60
3055;DHT22;1537;52.018;8.542;2022-12-26T13:31:54;10.40;90.10
3055;DHT22;1537;52.018;8.542;2022-12-26T13:35:48;10.30;90.70
3055;DHT22;1537;52.018;8.542;2022-12-26T13:43:01;9.80;91.10
3055;DHT22;1537;52.018;8.542;2022-12-26T13:46:55;9.70;91.60
3055;DHT22;1537;52.018;8.542;2022-12-26T13:50:47;9.60;91.60
3055;DHT22;1537;52.018;8.542;2022-12-26T13:54:18;9.40;91.90
3055;DHT22;1537;52.018;8.542;2022-12-26T13:57:43;9.20;91.10
3055;DHT22;1537;52.018;8.542;2022-12-26T14:01:20;9.00;90.60
3055;DHT22;1537;52.018;8.542;2022-12-26T14:04:56;8.80;90.00
3055;DHT22;1537;52.018;8.542;2022-12-26T14:08:30;8.60;89.00
3055;DHT22;1537;52.018;8.542;2022-12-26T14:12:13;8.40;88.30
3055;DHT22;1537;52.018;8.542;2022-12-26T14:15:47;8.30;88.70
3055;DHT22;1537;52.018;8.542;2022-12-26T14:19:31;8.40;88.50
3055;DHT22;1537;52.018;8.542;2022-12-26T14:23:04;8.40;88.60
3055;DHT22;1537;52.018;8.542;2022-12-26T14:26:39;8.20;87.60
3055;DHT22;1537;52.018;8.542;2022-12-26T14:30:21;8.20;86.80
3055;DHT22;1537;52.018;8.542;2022-12-26T14:33:49;8.10;86.40
3055;DHT22;1537;52.018;8.542;2022-12-26T14:37:26;7.90;86.10
3055;DHT22;1537;52.018;8.542;2022-12-26T14:41:05;7.90;86.50
3055;DHT22;1537;52.018;8.542;2022-12-26T14:44:59;7.70;85.70
3055;DHT22;1537;52.018;8.542;2022-12-26T14:48:48;7.70;86.90
3055;DHT22;1537;52.018;8.542;2022-12-26T14:52:37;7.70;87.10
3055;DHT22;1537;52.018;8.542;2022-12-26T14:56:31;7.60;87.50
3055;DHT22;1537;52.018;8.542;2022-12-26T15:00:24;7.70;87.50
3055;DHT22;1537;52.018;8.542;2022-12-26T15:03:50;7.60;87.10
3055;DHT22;1537;52.018;8.542;2022-12-26T15:15:28;7.50;86.40
3055;DHT22;1537;52.018;8.542;2022-12-26T15:19:29;7.50;86.50
3055;DHT22;1537;52.018;8.542;2022-12-26T15:27:15;7.40;86.60
3055;DHT22;1537;52.018;8.542;2022-12-26T15:31:26;7.40;86.80
3055;DHT22;1537;52.018;8.542;2022-12-26T15:35:06;7.30;87.40
3055;DHT22;1537;52.018;8.542;2022-12-26T15:38:39;7.40;87.10
3055;DHT22;1537;52.018;8.542;2022-12-26T15:42:22;7.30;87.00
3055;DHT22;1537;52.018;8.542;2022-12-26T15:45:54;7.30;86.80
3055;DHT22;1537;52.018;8.542;2022-12-26T15:50:00;7.30;86.70
3055;DHT22;1537;52.018;8.542;2022-12-26T15:53:45;7.20;86.50
3055;DHT22;1537;52.018;8.542;2022-12-26T15:57:25;7.30;86.70
3055;DHT22;1537;52.018;8.542;2022-12-26T16:00:53;7.20;86.40
3055;DHT22;1537;52.018;8.542;2022-12-26T16:04:26;7.20;86.50
3055;DHT22;1537;52.018;8.542;2022-12-26T16:08:04;7.20;86.10
3055;DHT22;1537;52.018;8.542;2022-12-26T16:11:47;7.20;86.10
3055;DHT22;1537;52.018;8.542;2022-12-26T16:15:16;7.10;86.30
3055;DHT22;1537;52.018;8.542;2022-12-26T16:18:40;7.20;86.40
3055;DHT22;1537;52.018;8.542;2022-12-26T16:22:06;7.20;86.80
3055;DHT22;1537;52.018;8.542;2022-12-26T16:25:48;7.10;86.80
3055;DHT22;1537;52.018;8.542;2022-12-26T16:29:15;7.10;86.30
3055;DHT22;1537;52.018;8.542;2022-12-26T16:32:42;7.10;86.70
3055;DHT22;1537;52.018;8.542;2022-12-26T16:36:08;7.10;86.90
3055;DHT22;1537;52.018;8.542;2022-12-26T16:39:32;7.10;87.30
3055;DHT22;1537;52.018;8.542;2022-12-26T16:42:59;7.10;87.70
3055;DHT22;1537;52.018;8.542;2022-12-26T16:46:26;7.20;87.80
3055;DHT22;1537;52.018;8.542;2022-12-26T16:49:52;7.20;87.60
3055;DHT22;1537;52.018;8.542;2022-12-26T16:53:18;7.10;87.80
3055;DHT22;1537;52.018;8.542;2022-12-26T16:56:42;7.00;87.70
3055;DHT22;1537;52.018;8.542;2022-12-26T17:00:15;7.00;87.50
3055;DHT22;1537;52.018;8.542;2022-12-26T17:03:47;7.10;87.60
3055;DHT22;1537;52.018;8.542;2022-12-26T17:07:15;7.10;86.70
3055;DHT22;1537;52.018;8.542;2022-12-26T17:10:45;7.10;86.50
3055;DHT22;1537;52.018;8.542;2022-12-26T17:14:17;7.00;86.70
3055;DHT22;1537;52.018;8.542;2022-12-26T17:17:42;7.00;87.10
3055;DHT22;1537;52.018;8.542;2022-12-26T17:21:31;7.00;87.00
3055;DHT22;1537;52.018;8.542;2022-12-26T17:25:17;6.90;86.90
3055;DHT22;1537;52.018;8.542;2022-12-26T17:28:41;6.90;87.30
3055;DHT22;1537;52.018;8.542;2022-12-26T17:32:06;6.90;87.10
3055;DHT22;1537;52.018;8.542;2022-12-26T17:35:32;6.90;87.10
3055;DHT22;1537;52.018;8.542;2022-12-26T17:39:19;6.90;86.80
3055;DHT22;1537;52.018;8.542;2022-12-26T17:42:47;7.00;87.00
3055;DHT22;1537;52.018;8.542;2022-12-26T17:46:13;7.00;87.30
3055;DHT22;1537;52.018;8.542;2022-12-26T17:49:37;7.00;87.90
3055;DHT22;1537;52.018;8.542;2022-12-26T17:53:06;7.00;88.20
3055;DHT22;1537;52.018;8.542;2022-12-26T17:56:30;6.90;87.70
3055;DHT22;1537;52.018;8.542;2022-12-26T17:59:56;7.00;88.40
3055;DHT22;1537;52.018;8.542;2022-12-26T18:03:20;7.00;88.50
3055;DHT22;1537;52.018;8.542;2022-12-26T18:06:43;6.90;88.50
3055;DHT22;1537;52.018;8.542;2022-12-26T18:10:15;6.80;88.90
3055;DHT22;1537;52.018;8.542;2022-12-26T18:13:40;6.80;90.00
3055;DHT22;1537;52.018;8.542;2022-12-26T18:17:06;6.60;88.40
3055;DHT22;1537;52.018;8.542;2022-12-26T18:20:30;6.60;88.20
3055;DHT22;1537;52.018;8.542;2022-12-26T18:23:54;6.60;88.40
3055;DHT22;1537;52.018;8.542;2022-12-26T18:27:20;6.50;88.10
3055;DHT22;1537;52.018;8.542;2022-12-26T18:30:45;6.60;88.30
3055;DHT22;1537;52.018;8.542;2022-12-26T18:34:10;6.50;88.20
3055;DHT22;1537;52.018;8.542;2022-12-26T18:37:33;6.40;87.80
3055;DHT22;1537;52.018;8.542;2022-12-26T18:40:57;6.30;87.40
3055;DHT22;1537;52.018;8.542;2022-12-26T18:44:23;6.40;88.60
3055;DHT22;1537;52.018;8.542;2022-12-26T18:47:46;6.40;88.00
3055;DHT22;1537;52.018;8.542;2022-12-26T18:51:11;6.30;86.60
3055;DHT22;1537;52.018;8.542;2022-12-26T18:54:35;6.20;86.80
3055;DHT22;1537;52.018;8.542;2022-12-26T18:57:59;6.20;87.20
3055;DHT22;1537;52.018;8.542;2022-12-26T19:01:29;6.10;86.80
3055;DHT22;1537;52.018;8.542;2022-12-26T19:04:54;6.10;86.90
3055;DHT22;1537;52.018;8.542;2022-12-26T19:08:20;6.10;87.00
3055;DHT22;1537;52.018;8.542;2022-12-26T19:11:44;6.00;86.80
3055;DHT22;1537;52.018;8.542;2022-12-26T19:15:10;5.90;87.30
3055;DHT22;1537;52.018;8.542;2022-12-26T19:18:34;6.00;87.60
3055;DHT22;1537;52.018;8.542;2022-12-26T19:21:58;6.00;87.80
3055;DHT22;1537;52.018;8.542;2022-12-26T19:25:24;6.00;88.10
3055;DHT22;1537;52.018;8.542;2022-12-26T19:28:49;5.80;87.80
3055;DHT22;1537;52.018;8.542;2022-12-26T19:32:13;5.70;88.60
3055;DHT22;1537;52.018;8.542;2022-12-26T19:35:37;5.70;88.70
3055;DHT22;1537;52.018;8.542;2022-12-26T19:39:00;5.60;88.90
3055;DHT22;1537;52.018;8.542;2022-12-26T19:42:25;5.60;88.90
3055;DHT22;1537;52.018;8.542;2022-12-26T19:45:57;5.50;88.30
3055;DHT22;1537;52.018;8.542;2022-12-26T19:49:21;5.40;88.40
3055;DHT22;1537;52.018;8.542;2022-12-26T19:52:51;5.40;88.80
3055;DHT22;1537;52.018;8.542;2022-12-26T19:56:16;5.30;88.90
3055;DHT22;1537;52.018;8.542;2022-12-26T19:59:41;5.20;88.30
3055;DHT22;1537;52.018;8.542;2022-12-26T20:03:05;5.20;88.30
3055;DHT22;1537;52.018;8.542;2022-12-26T20:06:32;5.00;88.10
3055;DHT22;1537;52.018;8.542;2022-12-26T20:09:56;5.00;88.20
3055;DHT22;1537;52.018;8.542;2022-12-26T20:13:22;5.00;88.10
3055;DHT22;1537;52.018;8.542;2022-12-26T20:16:47;4.90;88.00
3055;DHT22;1537;52.018;8.542;2022-12-26T20:20:30;4.90;88.20
3055;DHT22;1537;52.018;8.542;2022-12-26T20:23:55;4.80;87.90
3055;DHT22;1537;52.018;8.542;2022-12-26T20:27:19;4.80;88.00
3055;DHT22;1537;52.018;8.542;2022-12-26T20:30:42;4.70;88.30
3055;DHT22;1537;52.018;8.542;2022-12-26T20:34:08;4.70;88.30
3055;DHT22;1537;52.018;8.542;2022-12-26T20:37:32;4.70;88.40
3055;DHT22;1537;52.018;8.542;2022-12-26T20:40:56;4.70;88.40
3055;DHT22;1537;52.018;8.542;2022-12-26T20:44:19;4.60;88.20
3055;DHT22;1537;52.018;8.542;2022-12-26T20:47:43;4.60;88.30
3055;DHT22;1537;52.018;8.542;2022-12-26T20:51:12;4.60;88.00
3055;DHT22;1537;52.018;8.542;2022-12-26T20:54:38;4.50;88.10
3055;DHT22;1537;52.018;8.542;2022-12-26T20:58:02;4.50;88.40
3055;DHT22;1537;52.018;8.542;2022-12-26T21:01:26;4.40;88.10
3055;DHT22;1537;52.018;8.542;2022-12-26T21:04:52;4.40;88.10
3055;DHT22;1537;52.018;8.542;2022-12-26T21:08:17;4.30;88.30
3055;DHT22;1537;52.018;8.542;2022-12-26T21:11:41;4.30;87.70
3055;DHT22;1537;52.018;8.542;2022-12-26T21:15:07;4.20;87.80
3055;DHT22;1537;52.018;8.542;2022-12-26T21:18:31;4.20;87.80
3055;DHT22;1537;52.018;8.542;2022-12-26T21:21:55;4.20;87.30
3055;DHT22;1537;52.018;8.542;2022-12-26T21:25:20;4.20;87.60
3055;DHT22;1537;52.018;8.542;2022-12-26T21:28:44;4.10;87.10
3055;DHT22;1537;52.018;8.542;2022-12-26T21:32:08;4.10;87.20
3055;DHT22;1537;52.018;8.542;2022-12-26T21:35:35;4.10;86.70
3055;DHT22;1537;52.018;8.542;2022-12-26T21:39:04;4.00;86.60
3055;DHT22;1537;52.018;8.542;2022-12-26T21:42:30;4.00;86.80
3055;DHT22;1537;52.018;8.542;2022-12-26T21:45:53;4.10;86.50
3055;DHT22;1537;52.018;8.542;2022-12-26T21:49:22;4.20;85.80
3055;DHT22;1537;52.018;8.542;2022-12-26T21:52:46;4.20;86.20
3055;DHT22;1537;52.018;8.542;2022-12-26T21:56:12;4.30;86.30
3055;DHT22;1537;52.018;8.542;2022-12-26T21:59:38;4.20;86.40
3055;DHT22;1537;52.018;8.542;2022-12-26T22:03:20;4.20;86.60
3055;DHT22;1537;52.018;8.542;2022-12-26T22:07:01;4.20;86.30
3055;DHT22;1537;52.018;8.542;2022-12-26T22:10:27;4.30;86.60
3055;DHT22;1537;52.018;8.542;2022-12-26T22:14:09;4.30;86.60
3055;DHT22;1537;52.018;8.542;2022-12-26T22:17:34;4.30;86.80
3055;DHT22;1537;52.018;8.542;2022-12-26T22:21:01;4.30;86.60
3055;DHT22;1537;52.018;8.542;2022-12-26T22:24:25;4.20;86.70
3055;DHT22;1537;52.018;8.542;2022-12-26T22:27:49;4.30;86.80
3055;DHT22;1537;52.018;8.542;2022-12-26T22:31:18;4.30;86.90
3055;DHT22;1537;52.018;8.542;2022-12-26T22:34:44;4.30;86.30
3055;DHT22;1537;52.018;8.542;2022-12-26T22:38:15;4.30;86.20
3055;DHT22;1537;52.018;8.542;2022-12-26T22:41:39;4.30;85.60
3055;DHT22;1537;52.018;8.542;2022-12-26T22:45:07;4.20;85.20
3055;DHT22;1537;52.018;8.542;2022-12-26T22:48:31;4.10;85.00
3055;DHT22;1537;52.018;8.542;2022-12-26T22:51:56;4.00;84.60
3055;DHT22;1537;52.018;8.542;2022-12-26T22:55:20;4.00;84.60
3055;DHT22;1537;52.018;8.542;2022-12-26T22:58:44;4.00;84.50
3055;DHT22;1537;52.018;8.542;2022-12-26T23:02:08;4.00;83.90
3055;DHT22;1537;52.018;8.542;2022-12-26T23:05:33;4.00;84.00
3055;DHT22;1537;52.018;8.542;2022-12-26T23:09:00;4.00;84.10
3055;DHT22;1537;52.018;8.542;2022-12-26T23:12:25;3.90;84.00
3055;DHT22;1537;52.018;8.542;2022-12-26T23:16:10;3.90;83.90
3055;DHT22;1537;52.018;8.542;2022-12-26T23:19:42;3.90;83.70
3055;DHT22;1537;52.018;8.542;2022-12-26T23:23:25;3.90;83.30
3055;DHT22;1537;52.018;8.542;2022-12-26T23:26:53;3.80;83.40
3055;DHT22;1537;52.018;8.542;2022-12-26T23:30:17;3.80;83.80